createdAt,value
2019-05-09T00:00:26.082Z,17.67
2019-05-09T00:02:58.189Z,18.23
2019-05-09T00:05:29.896Z,17.77
2019-05-09T00:08:03.525Z,17.90
2019-05-09T00:10:39.459Z,17.00
2019-05-09T00:13:08.954Z,18.30
2019-05-09T00:15:41.022Z,18.55
2019-05-09T00:18:14.227Z,18.67
2019-05-09T00:20:48.233Z,18.12
2019-05-09T00:23:19.875Z,19.48
2019-05-09T00:25:53.771Z,19.50
2019-05-09T00:28:26.691Z,19.27
2019-05-09T00:31:03.436Z,20.85
2019-05-09T00:33:35.366Z,21.02
2019-05-09T00:36:07.059Z,20.82
2019-05-09T00:38:40.472Z,21.02
2019-05-09T00:41:14.036Z,20.35
2019-05-09T00:43:47.477Z,21.30
2019-05-09T00:46:21.049Z,21.65
2019-05-09T00:48:57.847Z,21.82
2019-05-09T00:51:29.793Z,21.57
2019-05-09T00:54:03.970Z,20.23
2019-05-09T00:56:34.764Z,20.48
2019-05-09T00:59:06.666Z,21.48
2019-05-09T01:01:38.868Z,20.65
2019-05-09T01:04:11.416Z,22.15
2019-05-09T01:06:44.069Z,20.45
2019-05-09T01:09:15.913Z,21.70
2019-05-09T01:11:47.946Z,20.95
2019-05-09T01:14:20.184Z,21.40
2019-05-09T01:16:53.505Z,21.20
2019-05-09T01:19:25.197Z,23.15
2019-05-09T01:21:58.380Z,22.32
2019-05-09T01:24:30.349Z,21.50
2019-05-09T01:27:04.018Z,21.60
2019-05-09T01:29:35.877Z,22.17
2019-05-09T01:32:14.424Z,21.23
2019-05-09T01:34:45.453Z,22.13
2019-05-09T01:37:17.090Z,21.10
2019-05-09T01:39:49.058Z,20.40
2019-05-09T01:42:20.771Z,20.57
2019-05-09T01:44:53.361Z,20.85
2019-05-09T01:47:25.160Z,21.02
2019-05-09T01:49:57.003Z,19.82
2019-05-09T01:52:28.861Z,19.45
2019-05-09T01:55:00.637Z,20.55
2019-05-09T01:57:33.753Z,20.10
2019-05-09T02:00:10.058Z,20.32
2019-05-09T02:02:43.342Z,19.67
2019-05-09T02:05:15.368Z,20.23
2019-05-09T02:07:46.990Z,19.57
2019-05-09T02:10:18.823Z,19.45
2019-05-09T02:12:50.396Z,20.25
2019-05-09T02:15:30.210Z,19.92
2019-05-09T02:18:06.844Z,20.23
2019-05-09T02:20:38.984Z,20.12
2019-05-09T02:23:10.652Z,21.52
2019-05-09T02:25:43.815Z,21.77
2019-05-09T02:28:16.737Z,23.40
2019-05-09T02:30:48.699Z,21.33
2019-05-09T02:33:24.814Z,20.43
2019-05-09T02:36:00.854Z,21.42
2019-05-09T02:38:28.818Z,21.85
2019-05-09T02:41:00.657Z,21.25
2019-05-09T02:43:32.480Z,20.17
2019-05-09T02:46:10.203Z,22.10
2019-05-09T02:48:42.083Z,20.52
2019-05-09T02:51:14.126Z,21.42
2019-05-09T02:53:48.488Z,22.17
2019-05-09T02:56:20.307Z,20.30
2019-05-09T02:58:58.902Z,21.57
2019-05-09T03:01:49.659Z,20.77
2019-05-09T03:04:21.679Z,22.67
2019-05-09T03:06:53.647Z,23.57
2019-05-09T03:09:28.433Z,23.73
2019-05-09T03:12:20.546Z,24.40
2019-05-09T03:14:33.008Z,24.05
2019-05-09T03:17:05.059Z,23.90
2019-05-09T03:19:38.676Z,23.02
2019-05-09T03:22:14.922Z,24.92
2019-05-09T03:24:48.664Z,23.80
2019-05-09T03:27:22.149Z,21.97
2019-05-09T03:29:55.312Z,23.02
2019-05-09T03:32:29.863Z,23.40
2019-05-09T03:35:01.723Z,23.00
2019-05-09T03:37:34.403Z,23.07
2019-05-09T03:40:07.906Z,21.77
2019-05-09T03:42:43.664Z,22.13
2019-05-09T03:45:15.073Z,21.85
2019-05-09T03:47:51.266Z,21.82
2019-05-09T03:50:22.827Z,21.00
2019-05-09T03:52:54.423Z,19.85
2019-05-09T03:55:28.162Z,21.77
2019-05-09T03:58:07.493Z,20.50
2019-05-09T04:00:39.883Z,21.93
2019-05-09T04:03:12.032Z,20.80
2019-05-09T04:05:55.338Z,21.35
2019-05-09T04:08:18.137Z,22.35
2019-05-09T04:10:51.875Z,22.70
2019-05-09T04:13:25.353Z,21.80
2019-05-09T04:15:58.174Z,23.10
2019-05-09T04:18:30.139Z,25.02
2019-05-09T04:21:02.274Z,23.70
2019-05-09T04:23:34.475Z,24.10
2019-05-09T04:26:13.572Z,23.40
2019-05-09T04:28:47.136Z,23.67
2019-05-09T04:31:19.066Z,22.82
2019-05-09T04:33:50.873Z,23.90
2019-05-09T04:36:24.423Z,23.62
2019-05-09T04:38:57.822Z,23.32
2019-05-09T04:41:29.376Z,24.27
2019-05-09T04:44:05.127Z,22.90
2019-05-09T04:46:35.042Z,23.47
2019-05-09T04:49:08.209Z,22.25
2019-05-09T04:51:40.088Z,22.37
2019-05-09T04:54:13.195Z,21.77
2019-05-09T04:56:47.280Z,21.07
2019-05-09T04:59:18.356Z,21.48
2019-05-09T05:01:51.861Z,20.32
2019-05-09T05:04:25.328Z,21.33
2019-05-09T05:06:58.574Z,20.95
2019-05-09T05:09:30.071Z,22.48
2019-05-09T05:12:02.000Z,21.82
2019-05-09T05:14:34.028Z,22.55
2019-05-09T05:17:10.198Z,21.52
2019-05-09T05:19:39.404Z,22.17
2019-05-09T05:22:17.981Z,22.40
2019-05-09T05:24:50.494Z,22.50
2019-05-09T05:27:22.634Z,22.35
2019-05-09T05:29:54.700Z,21.25
2019-05-09T05:32:31.654Z,22.00
2019-05-09T05:35:10.485Z,21.52
2019-05-09T05:37:42.446Z,19.60
2019-05-09T05:40:14.502Z,20.55
2019-05-09T05:42:47.797Z,20.10
2019-05-09T05:45:20.023Z,20.80
2019-05-09T05:47:53.272Z,20.57
2019-05-09T05:50:24.928Z,20.30
2019-05-09T05:52:57.792Z,18.87
2019-05-09T05:55:29.693Z,20.02
2019-05-09T05:58:01.810Z,19.48
2019-05-09T06:00:33.593Z,20.90
2019-05-09T06:03:05.696Z,20.68
2019-05-09T06:05:38.296Z,19.60
2019-05-09T06:08:11.157Z,21.40
2019-05-09T06:10:43.175Z,20.10
2019-05-09T06:13:15.058Z,22.85
2019-05-09T06:15:48.186Z,22.52
2019-05-09T06:18:19.896Z,20.55
2019-05-09T06:20:51.747Z,21.30
2019-05-09T06:23:23.853Z,18.90
2019-05-09T06:25:58.802Z,22.40
2019-05-09T06:28:30.692Z,21.10
2019-05-09T06:31:02.893Z,19.12
2019-05-09T06:33:35.597Z,18.90
2019-05-09T06:36:08.409Z,18.67
2019-05-09T06:38:40.215Z,19.80
2019-05-09T06:41:12.327Z,18.52
2019-05-09T06:43:45.560Z,18.42
2019-05-09T06:46:22.133Z,17.73
2019-05-09T06:49:17.937Z,17.52
2019-05-09T06:51:28.882Z,17.15
2019-05-09T06:54:00.917Z,24.02
2019-05-09T06:56:32.859Z,16.35
2019-05-09T06:59:04.662Z,18.10
2019-05-09T07:01:48.131Z,14.93
2019-05-09T07:04:21.741Z,16.17
2019-05-09T07:06:58.777Z,16.25
2019-05-09T07:09:32.397Z,16.73
2019-05-09T07:12:03.980Z,14.78
2019-05-09T07:14:41.677Z,13.70
2019-05-09T07:17:11.768Z,12.33
2019-05-09T07:19:44.260Z,10.35
2019-05-09T07:22:18.406Z,10.00
2019-05-09T07:25:05.964Z,9.08
2019-05-09T07:27:32.419Z,9.20
2019-05-09T07:30:07.791Z,9.10
2019-05-09T07:32:58.025Z,8.28
2019-05-09T07:35:29.786Z,8.30
2019-05-09T07:38:01.480Z,8.38
2019-05-09T07:40:33.218Z,7.87
2019-05-09T07:43:07.526Z,8.13
2019-05-09T07:45:38.516Z,7.70
2019-05-09T07:48:10.051Z,8.45
2019-05-09T07:50:41.802Z,8.23
2019-05-09T07:53:13.545Z,8.38
2019-05-09T07:55:47.359Z,8.35
2019-05-09T07:58:18.861Z,7.78
2019-05-09T08:00:50.951Z,7.20
2019-05-09T08:03:22.518Z,6.90
2019-05-09T08:05:54.309Z,7.00
2019-05-09T08:08:27.764Z,7.40
2019-05-09T08:10:59.449Z,6.33
2019-05-09T08:13:31.359Z,6.25
2019-05-09T08:16:02.877Z,6.28
2019-05-09T08:18:34.704Z,5.97
2019-05-09T08:21:08.510Z,5.58
2019-05-09T08:23:40.167Z,5.15
2019-05-09T08:26:11.613Z,4.80
2019-05-09T08:28:43.070Z,5.00
2019-05-09T08:31:14.844Z,4.75
2019-05-09T08:33:48.494Z,4.85
2019-05-09T08:36:20.381Z,4.72
2019-05-09T08:38:52.151Z,4.92
2019-05-09T08:41:23.924Z,4.85
2019-05-09T08:43:57.557Z,4.28
2019-05-09T08:46:29.377Z,5.03
2019-05-09T08:49:00.884Z,4.83
2019-05-09T08:51:38.448Z,4.53
2019-05-09T08:54:09.341Z,5.00
2019-05-09T08:56:41.101Z,5.58
2019-05-09T08:59:12.413Z,5.65
2019-05-09T09:02:07.819Z,5.00
2019-05-09T09:04:18.941Z,5.10
2019-05-09T09:06:50.803Z,4.72
2019-05-09T09:09:22.588Z,4.50
2019-05-09T09:11:54.444Z,4.62
2019-05-09T09:14:27.849Z,5.15
2019-05-09T09:16:59.595Z,4.67
2019-05-09T09:19:31.360Z,4.35
2019-05-09T09:22:03.286Z,4.78
2019-05-09T09:24:37.389Z,4.90
2019-05-09T09:27:08.370Z,4.50
2019-05-09T09:29:39.815Z,4.53
2019-05-09T09:32:11.256Z,4.60
2019-05-09T09:34:42.990Z,4.90
2019-05-09T09:37:14.905Z,4.47
2019-05-09T09:39:48.820Z,4.37
2019-05-09T09:42:20.391Z,11.60
2019-05-09T09:44:52.469Z,3.95
2019-05-09T09:47:24.480Z,4.65
2019-05-09T09:49:59.457Z,3.92
2019-05-09T09:52:33.766Z,7.87
2019-05-09T09:55:03.243Z,4.25
2019-05-09T09:57:35.072Z,4.00
2019-05-09T10:00:21.249Z,3.47
2019-05-09T10:02:53.112Z,3.25
2019-05-09T10:05:27.689Z,4.20
2019-05-09T10:07:58.329Z,3.27
2019-05-09T10:10:32.581Z,4.03
2019-05-09T10:13:04.652Z,4.60
2019-05-09T10:15:52.922Z,7.55
2019-05-09T10:18:28.944Z,4.25
2019-05-09T10:21:14.030Z,4.20
2019-05-09T10:23:48.143Z,4.05
2019-05-09T10:26:19.175Z,4.15
2019-05-09T10:28:50.885Z,3.85
2019-05-09T10:31:22.900Z,4.37
2019-05-09T10:33:58.037Z,4.60
2019-05-09T10:36:29.250Z,5.15
2019-05-09T10:39:01.272Z,4.75
2019-05-09T10:41:33.409Z,4.95
2019-05-09T10:44:08.347Z,4.00
2019-05-09T10:46:57.164Z,4.20
2019-05-09T10:49:24.337Z,4.42
2019-05-09T10:51:57.919Z,4.40
2019-05-09T10:54:28.845Z,4.45
2019-05-09T10:57:00.181Z,3.80
2019-05-09T10:59:33.120Z,3.85
2019-05-09T11:02:04.594Z,4.03
2019-05-09T11:04:37.946Z,4.40
2019-05-09T11:07:10.225Z,4.78
2019-05-09T11:09:42.020Z,4.45
2019-05-09T11:12:13.874Z,4.47
2019-05-09T11:14:48.298Z,4.72
2019-05-09T11:17:21.933Z,4.25
2019-05-09T11:19:52.989Z,4.12
2019-05-09T11:22:24.688Z,3.60
2019-05-09T11:24:57.961Z,3.87
2019-05-09T11:27:29.611Z,3.98
2019-05-09T11:30:01.613Z,3.80
2019-05-09T11:32:34.675Z,4.30
2019-05-09T11:35:09.032Z,5.12
2019-05-09T11:37:40.733Z,4.65
2019-05-09T11:40:13.008Z,5.03
2019-05-09T11:42:44.350Z,3.95
2019-05-09T11:45:17.923Z,4.65
2019-05-09T11:47:49.195Z,5.28
2019-05-09T11:50:23.223Z,4.72
2019-05-09T11:52:54.152Z,5.78
2019-05-09T11:55:32.377Z,4.55
2019-05-09T11:57:59.380Z,4.90
2019-05-09T12:00:32.318Z,4.25
2019-05-09T12:03:04.387Z,4.03
2019-05-09T12:05:37.904Z,3.83
2019-05-09T12:08:09.492Z,4.83
2019-05-09T12:10:41.491Z,4.30
2019-05-09T12:13:15.276Z,4.30
2019-05-09T12:15:48.946Z,4.55
2019-05-09T12:18:20.733Z,3.70
2019-05-09T12:20:52.590Z,5.47
2019-05-09T12:23:24.576Z,3.90
2019-05-09T12:26:01.737Z,3.60
2019-05-09T12:28:34.182Z,4.08
2019-05-09T12:31:07.895Z,4.50
2019-05-09T12:33:39.667Z,4.15
2019-05-09T12:36:11.632Z,4.70
2019-05-09T12:38:46.145Z,4.42
2019-05-09T12:41:19.053Z,4.67
2019-05-09T12:43:51.004Z,6.67
2019-05-09T12:46:23.789Z,3.98
2019-05-09T12:48:55.363Z,4.22
2019-05-09T12:51:28.166Z,3.60
2019-05-09T12:53:59.978Z,3.80
2019-05-09T12:56:31.434Z,35.55
2019-05-09T12:59:05.354Z,23.65
2019-05-09T13:01:40.549Z,5.50
2019-05-09T13:04:10.718Z,3.77
2019-05-09T13:06:42.247Z,4.67
2019-05-09T13:09:14.144Z,4.33
2019-05-09T13:11:48.058Z,4.15
2019-05-09T13:14:19.624Z,4.30
2019-05-09T13:17:08.140Z,5.20
2019-05-09T13:19:41.521Z,7.53
2019-05-09T13:22:12.982Z,4.83
2019-05-09T13:24:44.663Z,4.60
2019-05-09T13:27:18.726Z,5.08
2019-05-09T13:29:49.815Z,7.12
2019-05-09T13:32:21.347Z,23.92
2019-05-09T13:34:53.403Z,11.50
2019-05-09T13:37:29.322Z,5.25
2019-05-09T13:39:58.465Z,5.72
2019-05-09T13:42:30.278Z,12.30
2019-05-09T13:45:01.897Z,4.72
2019-05-09T13:47:33.618Z,5.92
2019-05-09T13:50:09.026Z,5.45
2019-05-09T13:52:40.812Z,5.03
2019-05-09T13:55:12.756Z,8.10
2019-05-09T13:57:44.734Z,5.75
2019-05-09T14:00:18.514Z,5.62
2019-05-09T14:02:50.530Z,32.28
2019-05-09T14:05:22.778Z,7.35
2019-05-09T14:07:55.869Z,6.62
2019-05-09T14:10:28.985Z,5.95
2019-05-09T14:13:08.972Z,7.62
2019-05-09T14:15:33.922Z,8.73
2019-05-09T14:18:08.164Z,7.08
2019-05-09T14:20:42.603Z,9.33
2019-05-09T14:23:14.466Z,6.60
2019-05-09T14:25:51.611Z,5.50
2019-05-09T14:28:19.443Z,5.65
2019-05-09T14:30:51.295Z,5.28
2019-05-09T14:33:23.292Z,4.80
2019-05-09T14:35:55.293Z,5.42
2019-05-09T14:38:27.152Z,4.80
2019-05-09T14:40:59.584Z,5.17
2019-05-09T14:43:31.228Z,7.35
2019-05-09T14:46:03.211Z,5.00
2019-05-09T14:48:35.043Z,5.90
2019-05-09T14:51:07.605Z,7.75
2019-05-09T14:53:39.510Z,8.48
2019-05-09T14:56:11.028Z,5.17
2019-05-09T14:58:42.782Z,5.78
2019-05-09T15:01:14.759Z,6.17
2019-05-09T15:03:48.513Z,6.03
2019-05-09T15:06:20.095Z,6.37
2019-05-09T15:08:52.902Z,6.05
2019-05-09T15:11:27.937Z,5.70
2019-05-09T15:13:58.632Z,5.37
2019-05-09T15:16:30.438Z,4.45
2019-05-09T15:19:02.374Z,5.40
2019-05-09T15:21:34.332Z,5.12
2019-05-09T15:24:05.991Z,5.58
2019-05-09T15:26:37.771Z,8.15
2019-05-09T15:29:09.607Z,4.80
2019-05-09T15:31:41.149Z,4.90
2019-05-09T15:34:12.929Z,4.50
2019-05-09T15:36:44.775Z,5.58
2019-05-09T15:39:18.323Z,5.40
2019-05-09T15:41:50.338Z,5.40
2019-05-09T15:44:22.011Z,4.67
2019-05-09T15:46:55.083Z,5.10
2019-05-09T15:49:28.521Z,4.00
2019-05-09T15:52:01.365Z,3.92
2019-05-09T15:54:38.662Z,4.05
2019-05-09T15:57:10.328Z,4.65
2019-05-09T15:59:41.992Z,4.60
2019-05-09T16:02:14.118Z,3.92
2019-05-09T16:04:47.531Z,5.50
2019-05-09T16:07:19.387Z,4.78
2019-05-09T16:09:51.052Z,4.80
2019-05-09T16:12:23.757Z,5.12
2019-05-09T16:14:57.775Z,5.95
2019-05-09T16:17:32.258Z,5.97
2019-05-09T16:20:05.299Z,4.60
2019-05-09T16:22:39.248Z,6.53
2019-05-09T16:25:10.292Z,5.72
2019-05-09T16:27:43.521Z,4.78
2019-05-09T16:30:16.692Z,5.08
2019-05-09T16:32:48.233Z,7.10
2019-05-09T16:35:19.825Z,5.40
2019-05-09T16:38:01.735Z,9.83
2019-05-09T16:40:25.053Z,7.33
2019-05-09T16:42:58.130Z,12.65
2019-05-09T16:45:30.291Z,25.77
2019-05-09T16:48:02.274Z,5.30
2019-05-09T16:50:34.025Z,8.43
2019-05-09T16:53:08.976Z,4.92
2019-05-09T16:55:40.598Z,4.10
2019-05-09T16:58:12.462Z,4.90
2019-05-09T17:00:48.091Z,4.83
2019-05-09T17:03:19.994Z,4.72
2019-05-09T17:05:51.910Z,4.47
2019-05-09T17:08:24.027Z,4.70
2019-05-09T17:10:55.600Z,4.50
2019-05-09T17:13:28.909Z,4.47
2019-05-09T17:16:00.821Z,5.40
2019-05-09T17:18:32.659Z,5.22
2019-05-09T17:21:18.344Z,5.67
2019-05-09T17:23:43.353Z,5.30
2019-05-09T17:26:17.579Z,6.42
2019-05-09T17:28:49.140Z,5.78
2019-05-09T17:31:20.977Z,5.45
2019-05-09T17:33:52.440Z,4.95
2019-05-09T17:36:24.072Z,5.58
2019-05-09T17:38:55.832Z,5.30
2019-05-09T17:41:28.441Z,5.62
2019-05-09T17:43:59.984Z,5.28
2019-05-09T17:46:31.747Z,5.45
2019-05-09T17:49:03.270Z,5.58
2019-05-09T17:51:36.482Z,5.20
2019-05-09T17:54:08.542Z,5.85
2019-05-09T17:56:40.404Z,5.85
2019-05-09T17:59:12.145Z,6.28
2019-05-09T18:01:44.760Z,7.22
2019-05-09T18:04:17.906Z,8.03
2019-05-09T18:06:49.872Z,7.47
2019-05-09T18:09:21.950Z,6.20
2019-05-09T18:11:53.793Z,7.03
2019-05-09T18:14:27.498Z,7.90
2019-05-09T18:16:58.823Z,8.28
2019-05-09T18:19:30.531Z,7.65
2019-05-09T18:22:04.159Z,8.50
2019-05-09T18:24:37.674Z,8.70
2019-05-09T18:27:09.729Z,8.45
2019-05-09T18:29:41.734Z,8.53
2019-05-09T18:32:15.024Z,8.78
2019-05-09T18:34:48.636Z,9.45
2019-05-09T18:37:20.236Z,8.95
2019-05-09T18:39:52.069Z,10.38
2019-05-09T18:42:23.711Z,9.30
2019-05-09T18:44:55.558Z,10.80
2019-05-09T18:47:27.978Z,10.45
2019-05-09T18:50:00.061Z,8.68
2019-05-09T18:52:31.845Z,10.00
2019-05-09T18:55:05.069Z,9.58
2019-05-09T18:57:36.545Z,10.08
2019-05-09T19:00:10.413Z,9.73
2019-05-09T19:02:42.293Z,8.63
2019-05-09T19:05:14.428Z,9.95
2019-05-09T19:07:46.099Z,8.83
2019-05-09T19:10:18.133Z,10.40
2019-05-09T19:12:49.897Z,10.98
2019-05-09T19:15:26.327Z,9.35
2019-05-09T19:18:05.298Z,9.90
2019-05-09T19:20:38.995Z,10.35
2019-05-09T19:23:10.672Z,9.20
2019-05-09T19:25:42.491Z,10.08
2019-05-09T19:28:14.482Z,9.73
2019-05-09T19:30:46.364Z,10.18
2019-05-09T19:33:17.887Z,9.38
2019-05-09T19:35:50.086Z,8.75
2019-05-09T19:38:21.950Z,9.60
2019-05-09T19:40:54.010Z,9.98
2019-05-09T19:43:25.832Z,8.25
2019-05-09T19:45:57.502Z,8.83
2019-05-09T19:48:29.472Z,9.00
2019-05-09T19:51:01.144Z,8.90
2019-05-09T19:53:32.980Z,9.20
2019-05-09T19:56:04.721Z,10.25
2019-05-09T19:58:36.821Z,9.58
2019-05-09T20:01:08.590Z,10.03
2019-05-09T20:03:41.293Z,9.58
2019-05-09T20:06:16.336Z,10.58
2019-05-09T20:08:46.442Z,10.32
2019-05-09T20:11:19.875Z,10.13
2019-05-09T20:13:55.898Z,11.90
2019-05-09T20:16:39.613Z,12.58
2019-05-09T20:19:11.566Z,12.88
2019-05-09T20:21:44.714Z,13.38
2019-05-09T20:24:16.327Z,12.93
2019-05-09T20:26:48.358Z,12.58
2019-05-09T20:29:21.471Z,12.53
2019-05-09T20:31:53.231Z,11.50
2019-05-09T20:34:24.944Z,11.12
2019-05-09T20:36:57.253Z,10.50
2019-05-09T20:39:30.998Z,10.40
2019-05-09T20:42:03.114Z,10.08
2019-05-09T20:44:34.948Z,10.55
2019-05-09T20:47:07.144Z,10.28
2019-05-09T20:49:39.098Z,9.48
2019-05-09T20:52:10.913Z,9.23
2019-05-09T20:54:42.962Z,8.73
2019-05-09T20:57:14.603Z,8.13
2019-05-09T20:59:46.656Z,7.95
2019-05-09T21:02:18.639Z,6.58
2019-05-09T21:04:50.668Z,6.87
2019-05-09T21:07:22.717Z,6.50
2019-05-09T21:09:56.716Z,6.53
2019-05-09T21:12:28.393Z,6.20
2019-05-09T21:15:00.578Z,6.25
2019-05-09T21:17:32.770Z,5.92
2019-05-09T21:20:06.131Z,5.95
2019-05-09T21:22:38.065Z,6.55
2019-05-09T21:25:10.535Z,5.97
2019-05-09T21:27:42.543Z,5.87
2019-05-09T21:30:14.732Z,6.62
2019-05-09T21:32:46.336Z,6.72
2019-05-09T21:35:18.078Z,6.80
2019-05-09T21:37:49.777Z,6.90
2019-05-09T21:40:21.713Z,6.42
2019-05-09T21:42:53.246Z,6.80
2019-05-09T21:45:24.798Z,7.97
2019-05-09T21:47:56.587Z,7.33
2019-05-09T21:50:28.297Z,8.13
2019-05-09T21:53:00.275Z,8.08
2019-05-09T21:55:31.942Z,8.65
2019-05-09T21:58:03.964Z,8.80
2019-05-09T22:00:37.722Z,7.78
2019-05-09T22:03:09.668Z,10.32
2019-05-09T22:05:41.237Z,8.45
2019-05-09T22:08:12.973Z,9.35
2019-05-09T22:10:45.754Z,9.23
2019-05-09T22:13:17.595Z,8.13
2019-05-09T22:15:49.444Z,8.45
2019-05-09T22:18:21.427Z,9.25
2019-05-09T22:20:53.122Z,8.70
2019-05-09T22:23:24.949Z,8.78
2019-05-09T22:25:56.914Z,9.73
2019-05-09T22:28:28.700Z,9.08
2019-05-09T22:31:00.892Z,8.55
2019-05-09T22:33:32.488Z,8.65
2019-05-09T22:36:04.356Z,9.65
2019-05-09T22:38:36.037Z,10.08
2019-05-09T22:41:07.929Z,13.53
2019-05-09T22:43:39.567Z,13.53
2019-05-09T22:46:11.481Z,14.87
2019-05-09T22:48:43.450Z,11.48
2019-05-09T22:51:15.322Z,11.15
2019-05-09T22:53:47.004Z,12.60
2019-05-09T22:56:18.832Z,14.00
2019-05-09T22:58:50.807Z,14.07
2019-05-09T23:01:23.525Z,17.10
2019-05-09T23:03:55.320Z,22.15
2019-05-09T23:06:27.207Z,27.45
2019-05-09T23:08:59.357Z,29.37
2019-05-09T23:11:31.512Z,17.05
2019-05-09T23:14:04.102Z,18.80
2019-05-09T23:16:37.278Z,19.07
2019-05-09T23:19:08.869Z,21.15
2019-05-09T23:21:41.640Z,17.07
2019-05-09T23:24:28.677Z,15.00
2019-05-09T23:26:54.348Z,13.95
2019-05-09T23:29:26.133Z,13.80
2019-05-09T23:32:02.467Z,15.40
2019-05-09T23:34:35.845Z,21.15
2019-05-09T23:37:07.838Z,20.45
2019-05-09T23:39:44.020Z,18.60
2019-05-09T23:42:15.950Z,37.03
2019-05-09T23:44:48.275Z,38.90
2019-05-09T23:47:20.332Z,22.95
2019-05-09T23:49:52.348Z,26.55
2019-05-09T23:52:24.203Z,19.02
2019-05-09T23:55:13.883Z,17.87
2019-05-09T23:58:03.800Z,15.15
